aviador You're here:

KFAF Decoded Metar

FORT EUSTIS in VA, USA
Report Time2018-06-17 20:56:00
UTC Time2018-06-17 21:40:05
Flight Rules vfr VFR
Wind120° at 09 kt
W.Decomp.*RWY 14: 8.9 kt HW 1.4 kt LCW
W.Rank120° ranks 29
Current wind is above 120° avg. (4.5)
Visibility9999 m
Phenomena:N/A
Clouds:N/A
Expected CloudBase > 2,800 ft AGL from Temp-Dew spread
CeilingNone
Temp30°C (ISA +15)
Dew Point23°C (66% RH)
Heat Index34.1°C
QNH1016 hPa
Density Alt2,005 ft
Elevation13 ft
Report Wrong Elevation
Raw Report
KFAF 172056Z AUTO 12009KT 10SM CLR 30/23 A3001 RMK AO2 SLP165
T03030227 57012 $=

Extra information for KFAF:More info

Metar Taf Metar & Taf Last 4 Metars F.Rules Stats Wind Profile Meteogram Temp Stats Airport Information Weather charts Add Link Nearby VenuesMetar ALERT Operation Metar Decoded Social comments

AIRNAV info for KFAF